Time;durP1;ratioP1;P1;durP2;ratioP2;P2;SDS_P1;SDS_P2;PMS_P1;PMS_P2;Temp;Humidity;BMP_temperature;BMP_pressure;BME280_temperature;BME280_humidity;BME280_pressure;Samples;Min_cycle;Max_cycle;Signal;HPM_P1;HPM_P2
2022/03/08 00:00:26;;;;;;;17.23;9.17;;;1.60;64.10;;;;;;4932782;29;20035;-75
2022/03/08 00:02:54;;;;;;;18.07;9.10;;;1.60;64.80;;;;;;4954121;29;20051;-76
2022/03/08 00:05:22;;;;;;;16.70;9.37;;;1.50;65.20;;;;;;4931967;29;20036;-76
2022/03/08 00:07:48;;;;;;;21.50;9.97;;;1.50;65.40;;;;;;4936037;29;20445;-76
2022/03/08 00:10:14;;;;;;;18.40;9.63;;;1.50;65.90;;;;;;4933144;29;20059;-76
2022/03/08 00:12:40;;;;;;;20.00;9.53;;;1.60;66.80;;;;;;4950736;29;20366;-75
2022/03/08 00:15:12;;;;;;;20.47;9.87;;;1.50;66.70;;;;;;4933615;29;20079;-76
2022/03/08 00:17:38;;;;;;;16.85;8.82;;;1.50;67.90;;;;;;4954436;29;20030;-76
2022/03/08 00:20:06;;;;;;;14.73;8.73;;;1.40;67.50;;;;;;4937323;29;20045;-76
2022/03/08 00:22:33;;;;;;;17.17;9.03;;;1.40;67.90;;;;;;4927741;29;20090;-76
2022/03/08 00:25:01;;;;;;;18.13;9.63;;;1.40;68.00;;;;;;4934854;29;20055;-75
2022/03/08 00:27:27;;;;;;;19.40;9.10;;;1.40;69.10;;;;;;4934171;28;20031;-75
2022/03/08 00:29:53;;;;;;;16.70;9.10;;;1.30;68.50;;;;;;4934498;29;20027;-75
2022/03/08 00:32:19;;;;;;;16.47;9.27;;;1.30;69.40;;;;;;4953332;29;20535;-75
2022/03/08 00:34:44;;;;;;;22.80;8.73;;;1.20;70.00;;;;;;4932476;29;20412;-75
2022/03/08 00:37:10;;;;;;;15.60;8.77;;;1.20;70.50;;;;;;4933559;29;20388;-75
2022/03/08 00:39:36;;;;;;;17.50;9.10;;;1.10;72.00;;;;;;4931787;29;20485;-75
2022/03/08 00:42:01;;;;;;;16.53;9.33;;;1.10;72.00;;;;;;4933819;29;20115;-75
2022/03/08 00:44:27;;;;;;;16.90;8.93;;;1.10;72.40;;;;;;4932292;29;20035;-76
2022/03/08 00:46:53;;;;;;;19.33;9.40;;;1.10;71.80;;;;;;4947293;29;20040;-75
2022/03/08 00:49:18;;;;;;;16.80;8.97;;;1.10;71.70;;;;;;4949531;29;20030;-75
2022/03/08 00:51:44;;;;;;;15.97;8.37;;;1.00;72.50;;;;;;4934084;29;20054;-75
2022/03/08 00:54:10;;;;;;;15.97;8.13;;;1.00;73.80;;;;;;4940484;29;20042;-75
2022/03/08 00:56:35;;;;;;;16.77;8.53;;;1.00;73.70;;;;;;4940759;29;20074;-75
2022/03/08 00:59:01;;;;;;;17.30;8.90;;;1.00;73.60;;;;;;4939901;29;20436;-76
2022/03/08 01:01:27;;;;;;;18.30;9.47;;;1.00;74.40;;;;;;4940745;29;20033;-75
2022/03/08 01:03:52;;;;;;;16.37;8.93;;;0.90;74.70;;;;;;4940505;29;20027;-75
2022/03/08 01:07:05;;;;;;;17.30;8.87;;;0.90;75.30;;;;;;4939901;29;20027;-75
2022/03/08 01:09:30;;;;;;;17.77;7.80;;;0.90;76.20;;;;;;4957374;29;20031;-75
2022/03/08 01:11:56;;;;;;;16.40;8.53;;;0.90;75.50;;;;;;4957469;29;20035;-75
2022/03/08 01:14:22;;;;;;;14.97;8.03;;;0.90;75.70;;;;;;4940105;29;20518;-76
2022/03/08 01:16:48;;;;;;;13.27;8.03;;;0.90;75.40;;;;;;4957364;29;20031;-75
2022/03/08 01:19:13;;;;;;;17.00;8.50;;;0.80;74.50;;;;;;4939620;29;20035;-75
2022/03/08 01:21:39;;;;;;;19.13;9.37;;;0.80;74.90;;;;;;4940052;29;20468;-76
2022/03/08 01:24:05;;;;;;;14.87;7.97;;;0.80;74.40;;;;;;4939619;29;20122;-76
2022/03/08 01:26:31;;;;;;;14.23;8.20;;;0.80;75.20;;;;;;4939868;29;20031;-74
2022/03/08 01:28:57;;;;;;;18.93;8.87;;;0.80;75.70;;;;;;4939949;29;20118;-75
2022/03/08 01:31:23;;;;;;;15.83;7.83;;;0.80;75.40;;;;;;4939773;29;20455;-75
2022/03/08 01:33:54;;;;;;;17.60;8.13;;;0.70;74.70;;;;;;4939594;29;20036;-75
2022/03/08 01:36:21;;;;;;;16.27;8.50;;;0.70;75.20;;;;;;4939172;29;20467;-74
2022/03/08 01:38:47;;;;;;;14.50;8.13;;;0.70;75.30;;;;;;4956697;29;20031;-75
2022/03/08 01:41:13;;;;;;;14.63;8.10;;;0.70;74.80;;;;;;4939177;29;20465;-75
2022/03/08 01:43:38;;;;;;;15.43;8.13;;;0.70;75.10;;;;;;4939658;29;20075;-75
2022/03/08 01:46:04;;;;;;;14.70;7.30;;;0.60;74.50;;;;;;4939039;29;20534;-75
2022/03/08 01:48:30;;;;;;;15.60;7.97;;;0.60;75.30;;;;;;4939505;29;20425;-75
2022/03/08 01:50:56;;;;;;;17.27;8.23;;;0.70;75.50;;;;;;4939646;29;20027;-75
2022/03/08 01:53:22;;;;;;;12.53;7.53;;;0.70;75.50;;;;;;4938850;29;20039;-75
2022/03/08 01:55:49;;;;;;;15.57;8.00;;;0.70;74.90;;;;;;4939585;29;20043;-76
2022/03/08 01:58:15;;;;;;;14.10;7.63;;;0.70;74.80;;;;;;4937855;29;20079;-75
2022/03/08 02:00:40;;;;;;;12.97;7.17;;;0.70;75.20;;;;;;4939410;29;20062;-75
2022/03/08 02:03:06;;;;;;;15.27;7.93;;;0.70;74.50;;;;;;4956131;29;20024;-75
2022/03/08 02:05:32;;;;;;;18.07;8.17;;;0.80;74.60;;;;;;4939484;29;20082;-75
2022/03/08 02:07:57;;;;;;;14.80;7.90;;;0.80;73.20;;;;;;4939432;29;20531;-75
2022/03/08 02:10:23;;;;;;;13.20;7.47;;;0.80;73.10;;;;;;4955824;29;20020;-75
2022/03/08 02:12:49;;;;;;;19.10;7.40;;;0.80;72.40;;;;;;4939094;29;20031;-75
2022/03/08 02:15:16;;;;;;;19.87;8.63;;;0.80;72.80;;;;;;4938425;29;20158;-76
2022/03/08 02:17:42;;;;;;;14.33;7.77;;;0.90;72.40;;;;;;4939256;29;20046;-75
2022/03/08 02:20:09;;;;;;;17.30;7.87;;;0.80;72.40;;;;;;4938288;29;20035;-75
2022/03/08 02:22:35;;;;;;;15.10;8.27;;;0.80;72.90;;;;;;4938896;29;20067;-75
2022/03/08 02:25:02;;;;;;;13.00;7.93;;;0.80;73.20;;;;;;4938801;29;20054;-76
2022/03/08 02:27:27;;;;;;;15.10;7.67;;;0.80;73.40;;;;;;4956150;29;20027;-75
2022/03/08 02:29:53;;;;;;;15.23;8.20;;;0.60;74.50;;;;;;4939086;29;20038;-76
2022/03/08 02:32:18;;;;;;;14.10;8.03;;;0.60;75.30;;;;;;4955069;29;20532;-75
2022/03/08 02:34:44;;;;;;;14.83;8.43;;;0.60;77.20;;;;;;4955772;29;20027;-75
2022/03/08 02:37:11;;;;;;;17.03;8.17;;;0.60;78.20;;;;;;4938234;29;20154;-75
2022/03/08 02:39:37;;;;;;;17.97;9.07;;;0.50;79.00;;;;;;4938698;29;20118;-75
2022/03/08 02:42:04;;;;;;;19.23;8.70;;;0.40;80.10;;;;;;4938402;29;20031;-75
2022/03/08 02:44:30;;;;;;;17.73;8.27;;;0.40;81.20;;;;;;4938350;29;20031;-75
2022/03/08 02:46:56;;;;;;;14.17;7.80;;;0.40;82.70;;;;;;4938777;29;20028;-74
2022/03/08 02:49:22;;;;;;;15.70;8.10;;;0.40;84.50;;;;;;4955089;29;20551;-76
2022/03/08 02:51:47;;;;;;;17.93;7.93;;;0.30;84.40;;;;;;4955722;29;20102;-75
2022/03/08 02:54:13;;;;;;;15.97;7.60;;;0.40;84.10;;;;;;4937714;29;20432;-75
2022/03/08 02:56:39;;;;;;;14.30;8.00;;;0.40;85.20;;;;;;4955512;29;20102;-75
2022/03/08 02:59:06;;;;;;;14.93;7.27;;;0.40;85.10;;;;;;4937819;29;20082;-76
2022/03/08 03:01:31;;;;;;;13.97;7.10;;;0.40;86.20;;;;;;4938070;29;20027;-75
2022/03/08 03:03:57;;;;;;;15.03;7.77;;;0.40;85.70;;;;;;4938341;29;20054;-76
2022/03/08 03:06:23;;;;;;;18.27;8.47;;;0.40;85.80;;;;;;4937649;29;20058;-76
2022/03/08 03:08:48;;;;;;;13.47;7.00;;;0.40;86.50;;;;;;4938295;28;20478;-76
2022/03/08 03:11:14;;;;;;;15.77;7.67;;;0.40;86.00;;;;;;4937502;29;20028;-76
2022/03/08 03:13:40;;;;;;;14.90;7.87;;;0.40;85.30;;;;;;4938299;29;20027;-76
2022/03/08 03:16:05;;;;;;;14.17;6.93;;;0.40;86.10;;;;;;4937700;29;20051;-76
2022/03/08 03:18:31;;;;;;;14.70;7.60;;;0.40;84.90;;;;;;4937576;29;20170;-76
2022/03/08 03:20:56;;;;;;;13.33;7.70;;;0.40;85.00;;;;;;4938423;29;20469;-76
2022/03/08 03:23:22;;;;;;;13.20;7.13;;;0.40;84.30;;;;;;4937478;29;20031;-76
2022/03/08 03:25:48;;;;;;;16.63;7.63;;;0.40;84.30;;;;;;4938269;29;20381;-76
2022/03/08 03:28:13;;;;;;;16.77;6.97;;;0.40;84.50;;;;;;4937726;29;20058;-76
2022/03/08 03:30:39;;;;;;;15.57;7.57;;;0.50;84.10;;;;;;4937913;29;20035;-76
2022/03/08 03:33:05;;;;;;;13.37;7.37;;;0.50;82.90;;;;;;4938013;29;20082;-75
2022/03/08 03:35:30;;;;;;;14.00;7.30;;;0.40;84.90;;;;;;4937541;29;20078;-76
2022/03/08 03:37:56;;;;;;;13.20;7.33;;;0.40;82.70;;;;;;4955083;29;20033;-76
2022/03/08 03:40:22;;;;;;;19.50;7.70;;;0.20;82.70;;;;;;4954590;29;20027;-76
2022/03/08 03:42:47;;;;;;;15.23;7.47;;;0.20;83.40;;;;;;4937858;29;20027;-75
2022/03/08 03:45:13;;;;;;;14.57;7.87;;;0.20;83.50;;;;;;4937365;29;20369;-77
2022/03/08 03:47:40;;;;;;;14.83;7.43;;;0.10;84.40;;;;;;4937916;29;20452;-77
2022/03/08 03:50:08;;;;;;;16.67;9.10;;;0.10;84.70;;;;;;4937960;29;20031;-77
2022/03/08 03:52:34;;;;;;;16.70;8.10;;;0.00;85.80;;;;;;4937647;29;20040;-77
2022/03/08 03:55:00;;;;;;;17.53;7.97;;;0.00;86.50;;;;;;4954809;29;20082;-78
2022/03/08 03:57:25;;;;;;;15.20;7.83;;;-0.10;87.30;;;;;;4937178;29;20461;-77
2022/03/08 03:59:51;;;;;;;12.47;6.63;;;-0.10;87.60;;;;;;4937707;29;20031;-76
2022/03/08 04:02:17;;;;;;;12.50;7.10;;;0.00;88.30;;;;;;4952410;29;20037;-76
2022/03/08 04:04:42;;;;;;;12.83;6.90;;;0.00;88.30;;;;;;4952811;29;20369;-77
2022/03/08 04:07:08;;;;;;;18.47;7.03;;;0.00;88.30;;;;;;4935557;29;20023;-76
2022/03/08 04:09:34;;;;;;;13.30;7.27;;;-0.10;88.90;;;;;;4936183;29;20083;-76
2022/03/08 04:11:59;;;;;;;16.37;7.70;;;-0.10;89.20;;;;;;4936968;29;20028;-76
2022/03/08 04:14:25;;;;;;;14.13;6.93;;;-0.10;89.30;;;;;;4935983;29;20420;-76
2022/03/08 04:16:52;;;;;;;14.27;7.30;;;-0.20;90.00;;;;;;4936447;29;20481;-76
2022/03/08 04:19:18;;;;;;;12.53;7.37;;;-0.20;90.00;;;;;;4936634;29;20073;-77
2022/03/08 04:21:44;;;;;;;11.13;6.63;;;-0.10;89.80;;;;;;4955179;28;20449;-77
2022/03/08 04:24:09;;;;;;;12.80;6.90;;;-0.10;89.60;;;;;;4939330;29;20028;-76
2022/03/08 04:26:35;;;;;;;13.07;7.20;;;-0.10;89.30;;;;;;4940380;29;20034;-76
2022/03/08 04:29:01;;;;;;;14.73;6.57;;;0.00;89.00;;;;;;4940761;29;20039;-76
2022/03/08 04:31:26;;;;;;;14.87;7.13;;;0.10;89.80;;;;;;4957179;29;20024;-76
2022/03/08 04:33:52;;;;;;;13.33;6.90;;;0.00;89.80;;;;;;4940253;29;20031;-76
2022/03/08 04:36:18;;;;;;;12.20;6.47;;;0.10;90.00;;;;;;4939532;29;20481;-77
2022/03/08 04:38:43;;;;;;;16.07;8.03;;;0.20;89.70;;;;;;4957666;29;20031;-76
2022/03/08 04:41:09;;;;;;;12.90;7.37;;;0.10;89.10;;;;;;4939832;29;20035;-77
2022/03/08 04:43:35;;;;;;;13.13;6.63;;;0.10;88.70;;;;;;4940832;29;20035;-76
2022/03/08 04:46:00;;;;;;;15.00;6.70;;;0.10;88.80;;;;;;4940351;29;20456;-76
2022/03/08 04:48:26;;;;;;;12.57;6.80;;;0.10;89.60;;;;;;4939873;29;20043;-76
2022/03/08 04:50:52;;;;;;;15.97;7.20;;;0.10;90.00;;;;;;4957405;29;20027;-76
2022/03/08 04:53:17;;;;;;;11.87;6.40;;;0.20;90.20;;;;;;4939803;29;20031;-76
2022/03/08 04:55:43;;;;;;;11.97;6.60;;;0.10;90.50;;;;;;4940251;29;20118;-76
2022/03/08 04:58:09;;;;;;;11.17;6.27;;;0.10;90.40;;;;;;4957543;29;20023;-76
2022/03/08 05:00:35;;;;;;;13.67;5.93;;;0.10;90.20;;;;;;4957477;29;20023;-76
2022/03/08 05:03:00;;;;;;;12.27;6.50;;;0.10;90.10;;;;;;4940229;29;20035;-76
2022/03/08 05:05:29;;;;;;;10.60;6.57;;;0.10;90.10;;;;;;4939553;29;20279;-77
2022/03/08 05:07:55;;;;;;;13.47;6.50;;;0.10;90.80;;;;;;4940286;29;20031;-76
2022/03/08 05:10:20;;;;;;;14.30;7.10;;;0.20;91.10;;;;;;4956843;29;20449;-76
2022/03/08 05:12:46;;;;;;;12.03;6.13;;;0.20;90.40;;;;;;4939966;29;20370;-76
2022/03/08 05:15:12;;;;;;;13.80;6.80;;;0.20;90.30;;;;;;4938888;29;20186;-76
2022/03/08 05:17:37;;;;;;;14.60;7.57;;;0.20;90.40;;;;;;4939994;29;20031;-76
2022/03/08 05:20:04;;;;;;;16.87;8.17;;;0.10;90.40;;;;;;4956950;29;20082;-77
2022/03/08 05:22:30;;;;;;;14.33;7.60;;;0.10;90.60;;;;;;4956616;29;20027;-77
2022/03/08 05:24:56;;;;;;;15.03;7.50;;;0.00;90.90;;;;;;4940001;29;20039;-78
2022/03/08 05:27:21;;;;;;;13.63;7.03;;;0.00;90.90;;;;;;4956269;29;20027;-76
2022/03/08 05:29:47;;;;;;;12.67;6.53;;;0.00;90.90;;;;;;4939769;29;20039;-76
2022/03/08 05:32:13;;;;;;;14.73;7.33;;;-0.10;91.10;;;;;;4939012;28;20023;-77
2022/03/08 05:34:39;;;;;;;12.27;6.97;;;-0.10;91.30;;;;;;4956847;29;20487;-76
2022/03/08 05:37:04;;;;;;;13.53;7.13;;;0.00;91.40;;;;;;4940012;29;20392;-76
2022/03/08 05:39:30;;;;;;;13.30;6.93;;;0.00;91.10;;;;;;4939206;29;20038;-77
2022/03/08 05:41:55;;;;;;;13.77;7.23;;;0.00;91.70;;;;;;4939932;29;20023;-76
2022/03/08 05:44:21;;;;;;;12.23;6.47;;;0.00;91.80;;;;;;4939061;29;20400;-76
2022/03/08 05:46:47;;;;;;;14.83;7.00;;;0.00;91.70;;;;;;4939782;29;20082;-75
2022/03/08 05:49:13;;;;;;;16.73;7.47;;;0.00;91.90;;;;;;4939434;29;20461;-76
2022/03/08 05:51:38;;;;;;;15.80;8.20;;;-0.10;92.10;;;;;;4939436;29;20031;-76
2022/03/08 05:54:04;;;;;;;13.20;7.03;;;-0.20;92.60;;;;;;4956481;29;20396;-76
2022/03/08 05:56:30;;;;;;;10.57;6.57;;;-0.20;92.50;;;;;;4938685;29;20027;-76
2022/03/08 05:58:55;;;;;;;13.27;7.13;;;-0.30;92.20;;;;;;4956345;29;20023;-75
2022/03/08 06:01:21;;;;;;;13.60;6.63;;;-0.20;92.50;;;;;;4938851;29;20159;-75
2022/03/08 06:03:46;;;;;;;12.47;6.70;;;-0.30;92.90;;;;;;4939379;29;20062;-76
2022/03/08 06:06:12;;;;;;;12.73;6.70;;;-0.30;92.80;;;;;;4939384;29;20082;-76
2022/03/08 06:08:38;;;;;;;15.20;6.87;;;-0.30;92.20;;;;;;4955761;29;20028;-76
2022/03/08 06:11:04;;;;;;;13.17;7.37;;;-0.30;92.60;;;;;;4956104;29;20110;-76
2022/03/08 06:13:30;;;;;;;14.97;7.10;;;-0.30;92.30;;;;;;4955088;29;20473;-76
2022/03/08 06:15:55;;;;;;;16.97;6.57;;;-0.30;92.50;;;;;;4938763;29;20043;-76
2022/03/08 06:18:21;;;;;;;11.90;6.40;;;-0.40;92.60;;;;;;4955397;29;20031;-76
2022/03/08 06:20:47;;;;;;;15.77;7.37;;;-0.40;92.40;;;;;;4955888;29;20027;-76
2022/03/08 06:23:12;;;;;;;11.93;6.53;;;-0.40;92.40;;;;;;4938536;29;20464;-76
2022/03/08 06:25:38;;;;;;;14.13;6.90;;;-0.30;92.50;;;;;;4938200;29;20228;-76
2022/03/08 06:28:04;;;;;;;15.20;7.13;;;-0.30;92.20;;;;;;4938944;29;20370;-76
2022/03/08 06:30:30;;;;;;;12.83;6.63;;;-0.40;92.20;;;;;;4938332;29;20086;-76
2022/03/08 06:32:55;;;;;;;14.97;7.20;;;-0.40;92.70;;;;;;4938562;29;20039;-75
2022/03/08 06:35:21;;;;;;;15.53;7.60;;;-0.50;92.60;;;;;;4937678;29;20054;-77
2022/03/08 06:37:47;;;;;;;17.00;7.93;;;-0.50;92.70;;;;;;4938614;29;20055;-77
2022/03/08 06:40:13;;;;;;;13.83;7.53;;;-0.50;92.40;;;;;;4938532;29;20031;-77
2022/03/08 06:42:38;;;;;;;17.17;8.10;;;-0.40;92.50;;;;;;4954838;29;20501;-75
2022/03/08 06:45:05;;;;;;;15.97;7.70;;;-0.40;92.20;;;;;;4937387;29;20400;-77
2022/03/08 06:47:31;;;;;;;13.07;7.03;;;-0.40;92.50;;;;;;4937970;29;20028;-76
2022/03/08 06:49:57;;;;;;;17.20;7.37;;;-0.40;92.40;;;;;;4938524;29;20035;-76
2022/03/08 06:52:23;;;;;;;12.93;7.20;;;-0.40;92.40;;;;;;4937924;29;20027;-76
2022/03/08 06:54:49;;;;;;;12.70;7.07;;;-0.30;92.60;;;;;;4955349;29;20086;-76
2022/03/08 06:57:14;;;;;;;19.27;7.10;;;-0.30;92.40;;;;;;4955274;29;20023;-76
2022/03/08 06:59:40;;;;;;;18.63;7.27;;;-0.20;92.20;;;;;;4937636;29;20460;-76
2022/03/08 07:02:06;;;;;;;14.03;7.67;;;-0.10;91.80;;;;;;4955609;29;20082;-76
2022/03/08 07:04:32;;;;;;;14.13;7.70;;;0.00;91.80;;;;;;4937560;29;20439;-76
2022/03/08 07:06:57;;;;;;;13.57;7.43;;;0.10;92.10;;;;;;4955373;29;20037;-76
2022/03/08 07:09:23;;;;;;;11.73;6.93;;;0.10;91.50;;;;;;4939069;29;20063;-77
2022/03/08 07:11:49;;;;;;;13.60;7.17;;;0.20;90.90;;;;;;4941116;29;20027;-76
2022/03/08 07:14:17;;;;;;;14.67;7.53;;;0.30;91.30;;;;;;4939578;29;20031;-76
2022/03/08 07:16:43;;;;;;;13.60;7.10;;;0.30;90.50;;;;;;4956620;29;20031;-76
2022/03/08 07:19:09;;;;;;;12.67;6.73;;;0.40;90.30;;;;;;4938783;29;20038;-76
2022/03/08 07:21:35;;;;;;;14.50;6.57;;;0.40;90.00;;;;;;4955931;29;20031;-76
2022/03/08 07:24:01;;;;;;;13.20;6.57;;;0.50;89.80;;;;;;4939362;29;20464;-76
2022/03/08 07:26:26;;;;;;;16.17;7.20;;;0.60;89.60;;;;;;4938769;29;20077;-77
2022/03/08 07:28:52;;;;;;;12.00;6.70;;;0.60;89.30;;;;;;4938638;29;20027;-76
2022/03/08 07:31:17;;;;;;;11.93;6.90;;;0.60;88.00;;;;;;4938891;29;20035;-76
2022/03/08 07:33:43;;;;;;;12.00;7.00;;;0.60;87.60;;;;;;4938040;29;20035;-76
2022/03/08 07:36:09;;;;;;;12.30;6.80;;;0.70;87.60;;;;;;4937917;29;20032;-76
2022/03/08 07:38:34;;;;;;;11.30;6.33;;;0.70;86.80;;;;;;4937350;29;20393;-76
2022/03/08 07:41:01;;;;;;;13.07;6.10;;;0.80;86.70;;;;;;4937933;29;20027;-75
2022/03/08 07:43:26;;;;;;;12.63;6.57;;;0.80;87.00;;;;;;4937137;29;20035;-75
2022/03/08 07:45:52;;;;;;;11.47;6.63;;;0.90;86.10;;;;;;4937401;29;20086;-76
2022/03/08 07:48:18;;;;;;;13.80;7.07;;;0.90;85.40;;;;;;4954642;29;20039;-76
2022/03/08 07:50:44;;;;;;;13.80;6.87;;;0.90;85.20;;;;;;4937319;29;20023;-76
2022/03/08 07:53:10;;;;;;;10.17;6.23;;;1.00;84.50;;;;;;4954279;29;20035;-76
2022/03/08 07:55:35;;;;;;;13.20;7.13;;;1.10;84.40;;;;;;4954817;28;20032;-76
2022/03/08 07:58:02;;;;;;;11.73;6.00;;;1.10;83.70;;;;;;4941593;29;20031;-76
2022/03/08 08:00:28;;;;;;;11.83;6.77;;;1.20;83.70;;;;;;4940724;29;20114;-76
2022/03/08 08:02:54;;;;;;;11.63;6.50;;;1.20;82.20;;;;;;4941632;29;20117;-76
2022/03/08 08:05:21;;;;;;;10.73;6.17;;;1.30;82.00;;;;;;4958794;29;20023;-76
2022/03/08 08:07:47;;;;;;;11.20;7.03;;;1.30;82.20;;;;;;4941504;29;20067;-76
2022/03/08 08:10:12;;;;;;;13.20;6.53;;;1.30;82.60;;;;;;4958652;29;20086;-75
2022/03/08 08:12:39;;;;;;;12.67;5.77;;;1.40;82.50;;;;;;4940209;29;20423;-76
2022/03/08 08:15:06;;;;;;;11.03;5.97;;;1.50;81.60;;;;;;4942494;29;20105;-74
2022/03/08 08:17:32;;;;;;;11.83;6.30;;;1.60;79.40;;;;;;4942679;29;20114;-75
2022/03/08 08:19:58;;;;;;;12.07;6.57;;;1.70;80.70;;;;;;4941044;29;20023;-74
2022/03/08 08:22:23;;;;;;;21.20;9.87;;;1.80;79.80;;;;;;4940421;29;20027;-75
2022/03/08 08:24:49;;;;;;;13.23;7.80;;;1.80;80.80;;;;;;4958061;29;20031;-75
2022/03/08 08:27:14;;;;;;;12.80;7.40;;;1.90;81.40;;;;;;4941104;29;20074;-75
2022/03/08 08:29:40;;;;;;;11.50;6.30;;;2.00;81.70;;;;;;4957801;29;20054;-75
2022/03/08 08:32:06;;;;;;;13.43;6.20;;;2.10;75.80;;;;;;4940725;29;20082;-75
2022/03/08 08:34:32;;;;;;;10.57;5.70;;;2.10;76.60;;;;;;4957171;29;20062;-75
2022/03/08 08:36:58;;;;;;;10.47;5.70;;;2.20;76.00;;;;;;4957751;29;20062;-75
2022/03/08 08:39:24;;;;;;;11.07;6.07;;;2.30;75.50;;;;;;4940110;29;20050;-75
2022/03/08 08:41:50;;;;;;;11.27;6.00;;;2.40;76.70;;;;;;4940659;29;20114;-75
2022/03/08 08:44:16;;;;;;;9.13;5.57;;;2.60;74.60;;;;;;4940630;29;20031;-76
2022/03/08 08:46:41;;;;;;;8.67;5.53;;;2.60;73.50;;;;;;4923299;29;20477;-76
2022/03/08 08:49:07;;;;;;;11.00;6.00;;;2.70;73.00;;;;;;4937512;29;20437;-76
2022/03/08 08:51:34;;;;;;;8.53;5.80;;;2.60;72.40;;;;;;4938164;29;20170;-76
2022/03/08 08:54:00;;;;;;;9.73;5.60;;;2.70;72.30;;;;;;4921476;29;20035;-76
2022/03/08 08:56:26;;;;;;;12.20;6.20;;;2.80;72.20;;;;;;4921064;29;20042;-76
2022/03/08 08:58:52;;;;;;;8.43;5.37;;;2.90;73.80;;;;;;4938635;29;20039;-76
2022/03/08 09:01:17;;;;;;;11.40;5.60;;;2.90;71.60;;;;;;4921719;29;20024;-76
2022/03/08 09:03:43;;;;;;;11.13;6.10;;;3.00;72.90;;;;;;4921057;29;20574;-76
2022/03/08 09:06:08;;;;;;;10.03;5.50;;;3.10;71.90;;;;;;4921894;29;20047;-76
2022/03/08 09:08:34;;;;;;;11.40;5.07;;;3.20;73.30;;;;;;4920372;29;20031;-76
2022/03/08 09:11:00;;;;;;;8.80;4.83;;;3.30;69.90;;;;;;4938288;29;20032;-76
2022/03/08 09:13:26;;;;;;;9.97;5.00;;;3.30;68.80;;;;;;4937055;29;20035;-78
2022/03/08 09:15:51;;;;;;;9.13;5.30;;;3.40;68.50;;;;;;4937510;29;20103;-76
2022/03/08 09:18:17;;;;;;;11.13;4.70;;;3.50;67.40;;;;;;4921245;29;20040;-76
2022/03/08 09:20:43;;;;;;;9.70;5.53;;;3.50;67.30;;;;;;4925046;29;20440;-76
2022/03/08 09:23:09;;;;;;;9.67;5.67;;;3.60;66.80;;;;;;4946758;29;20358;-77
2022/03/08 09:25:36;;;;;;;9.83;5.53;;;3.70;67.20;;;;;;4953490;29;20083;-76
2022/03/08 09:28:02;;;;;;;10.90;5.50;;;3.80;66.40;;;;;;4940374;29;20027;-77
2022/03/08 09:30:29;;;;;;;8.83;5.27;;;3.80;66.10;;;;;;4937332;29;20031;-77
2022/03/08 09:32:59;;;;;;;9.97;5.37;;;3.90;67.20;;;;;;4929797;29;20043;-76
2022/03/08 09:35:26;;;;;;;9.97;5.27;;;4.00;65.60;;;;;;4930542;29;20433;-76
2022/03/08 09:37:52;;;;;;;9.23;5.30;;;4.10;65.20;;;;;;4929949;29;20090;-77
2022/03/08 09:40:19;;;;;;;8.53;5.07;;;4.20;65.60;;;;;;4930792;29;21330;-75
2022/03/08 09:42:44;;;;;;;12.27;5.20;;;4.30;63.80;;;;;;4931044;29;20032;-77
2022/03/08 09:45:10;;;;;;;7.67;5.00;;;4.30;65.60;;;;;;4948872;29;20030;-77
2022/03/08 09:47:36;;;;;;;11.13;5.73;;;4.30;65.40;;;;;;4929064;29;20031;-77
2022/03/08 09:50:04;;;;;;;10.30;5.30;;;4.30;63.40;;;;;;4937080;29;20035;-76
2022/03/08 09:52:30;;;;;;;9.23;5.27;;;4.30;63.60;;;;;;4923678;29;20031;-76
2022/03/08 09:54:56;;;;;;;11.67;4.97;;;4.40;66.60;;;;;;4923647;29;20079;-77
2022/03/08 09:57:23;;;;;;;7.53;4.97;;;4.50;63.70;;;;;;4928713;29;20047;-77
2022/03/08 09:59:49;;;;;;;12.10;5.63;;;4.60;63.20;;;;;;4928001;29;20023;-77
2022/03/08 10:02:15;;;;;;;9.70;5.60;;;4.60;63.60;;;;;;4929185;29;20031;-77
2022/03/08 10:04:41;;;;;;;9.07;5.87;;;4.70;64.10;;;;;;4928318;29;20030;-77
2022/03/08 10:07:12;;;;;;;10.30;5.10;;;4.60;62.30;;;;;;4929152;29;20366;-77
2022/03/08 10:09:38;;;;;;;9.73;5.47;;;4.70;64.10;;;;;;4928318;29;20028;-75
2022/03/08 10:12:15;;;;;;;9.13;5.07;;;4.80;62.30;;;;;;4948122;29;20486;-77
2022/03/08 10:14:41;;;;;;;11.73;5.40;;;4.90;62.90;;;;;;4930153;29;20052;-77
2022/03/08 10:17:27;;;;;;;8.70;5.10;;;5.00;62.10;;;;;;4928010;29;20031;-77
2022/03/08 10:19:53;;;;;;;11.83;5.57;;;5.00;63.60;;;;;;4942943;28;20026;-76
2022/03/08 10:22:30;;;;;;;9.13;5.47;;;5.20;62.20;;;;;;4944597;29;20028;-76
2022/03/08 10:25:24;;;;;;;9.97;5.53;;;5.10;61.20;;;;;;4930026;29;20483;-76
2022/03/08 10:27:55;;;;;;;10.23;5.43;;;5.00;60.80;;;;;;4929078;29;20011;-76
2022/03/08 10:30:47;;;;;;;11.15;5.57;;;5.10;61.80;;;;;;4929196;29;20047;-76
2022/03/08 10:33:19;;;;;;;10.90;5.90;;;5.10;61.00;;;;;;4947854;29;20053;-77
2022/03/08 10:35:47;;;;;;;8.80;5.53;;;5.20;61.30;;;;;;4930875;29;20050;-76
2022/03/08 10:38:13;;;;;;;9.77;5.60;;;5.20;61.90;;;;;;4931427;29;20368;-76
2022/03/08 10:40:40;;;;;;;11.23;5.80;;;5.20;61.30;;;;;;4926111;29;20027;-76
2022/03/08 10:43:09;;;;;;;11.47;5.30;;;5.20;60.20;;;;;;4945705;29;20019;-76
2022/03/08 10:45:39;;;;;;;9.27;5.40;;;5.20;60.60;;;;;;4937237;29;20035;-76
2022/03/08 10:48:07;;;;;;;11.90;5.67;;;5.30;61.60;;;;;;4938361;29;20038;-77
2022/03/08 10:50:36;;;;;;;10.53;5.27;;;5.30;60.80;;;;;;4938237;29;20024;-77
2022/03/08 10:53:05;;;;;;;8.43;4.83;;;5.40;62.80;;;;;;4938163;29;20447;-76
2022/03/08 10:55:37;;;;;;;10.43;5.27;;;5.50;60.20;;;;;;4937039;29;20039;-77
2022/03/08 10:58:08;;;;;;;8.35;4.80;;;5.70;62.60;;;;;;4938379;29;20114;-77
2022/03/08 11:00:38;;;;;;;8.57;5.23;;;5.80;60.30;;;;;;4937868;29;20135;-77
2022/03/08 11:03:12;;;;;;;8.97;4.87;;;5.70;59.30;;;;;;4955465;29;20031;-76
2022/03/08 11:05:50;;;;;;;8.83;5.87;;;5.80;60.10;;;;;;4954503;29;20019;-77
2022/03/08 11:08:16;;;;;;;12.50;5.43;;;5.80;59.70;;;;;;4949222;29;20082;-76
2022/03/08 11:10:43;;;;;;;9.07;5.07;;;5.90;59.50;;;;;;4937103;29;20527;-75
2022/03/08 11:13:11;;;;;;;11.77;5.13;;;5.90;58.20;;;;;;4938352;29;20023;-79
2022/03/08 11:15:38;;;;;;;10.77;5.77;;;5.90;58.10;;;;;;4954891;28;20058;-79
2022/03/08 11:18:08;;;;;;;9.30;4.93;;;6.10;58.20;;;;;;4935410;29;20031;-77
2022/03/08 11:20:34;;;;;;;7.83;4.63;;;6.00;58.10;;;;;;4931636;29;20027;-75
2022/03/08 11:23:01;;;;;;;12.37;6.17;;;6.10;58.60;;;;;;4933365;29;20019;-75
2022/03/08 11:25:46;;;;;;;7.17;4.53;;;6.20;58.30;;;;;;4954542;29;20019;-75
2022/03/08 11:28:13;;;;;;;9.27;5.20;;;6.30;57.90;;;;;;4954559;29;20098;-75
2022/03/08 11:30:49;;;;;;;6.63;4.40;;;6.50;57.50;;;;;;4953700;28;20110;-74
2022/03/08 11:33:20;;;;;;;7.97;4.17;;;6.60;55.30;;;;;;4923118;29;20629;-75
2022/03/08 11:35:57;;;;;;;8.85;4.20;;;6.60;55.00;;;;;;4937016;29;20033;-76
2022/03/08 11:38:24;;;;;;;5.50;3.80;;;6.60;54.50;;;;;;4937264;29;20027;-77
2022/03/08 11:40:53;;;;;;;8.07;4.10;;;6.70;53.70;;;;;;4936384;29;20294;-76
2022/03/08 11:43:19;;;;;;;6.97;4.00;;;6.80;56.00;;;;;;4954090;29;20106;-75
2022/03/08 11:45:48;;;;;;;7.13;3.50;;;7.10;53.50;;;;;;4936332;29;20552;-75
2022/03/08 11:48:19;;;;;;;5.10;3.37;;;7.10;52.80;;;;;;4937065;29;20027;-76
2022/03/08 11:50:45;;;;;;;7.23;4.00;;;7.20;53.20;;;;;;4936813;29;20476;-76
2022/03/08 11:53:25;;;;;;;6.43;3.57;;;7.30;51.70;;;;;;4937112;29;20404;-76
2022/03/08 11:55:55;;;;;;;10.50;4.07;;;7.30;52.10;;;;;;4954080;29;20054;-76
2022/03/08 11:58:45;;;;;;;5.30;3.83;;;7.40;52.20;;;;;;4958080;29;20019;-80
2022/03/08 12:01:34;;;;;;;6.37;3.37;;;7.50;50.90;;;;;;4928055;29;20023;-81
2022/03/08 12:04:10;;;;;;;6.53;3.40;;;7.50;51.70;;;;;;4922792;29;20033;-79
2022/03/08 12:06:37;;;;;;;7.97;3.87;;;7.60;50.60;;;;;;4937408;29;20046;-79
2022/03/08 12:09:07;;;;;;;5.73;3.90;;;7.80;50.70;;;;;;4954499;29;20487;-79
2022/03/08 12:11:41;;;;;;;9.32;3.80;;;8.00;50.60;;;;;;4937399;29;20023;-80
2022/03/08 12:14:18;;;;;;;10.57;3.63;;;8.00;48.90;;;;;;4937386;29;20094;-78
2022/03/08 12:16:46;;;;;;;4.80;3.47;;;8.00;49.00;;;;;;4937466;29;20031;-80
2022/03/08 12:19:18;;;;;;;8.15;3.45;;;8.30;48.50;;;;;;4953920;29;20027;-77
2022/03/08 12:21:44;;;;;;;;;;;8.50;48.30;;;;;;4936926;29;20027;-75
2022/03/08 12:24:18;;;;;;;5.10;2.88;;;8.60;47.60;;;;;;4936919;29;19948;-79
2022/03/08 12:26:57;;;;;;;5.20;3.65;;;8.90;47.80;;;;;;4954323;29;20059;-79
2022/03/08 12:29:41;;;;;;;5.80;3.65;;;9.00;47.50;;;;;;4954975;29;20182;-79
2022/03/08 12:32:09;;;;;;;5.85;3.33;;;9.20;47.20;;;;;;4936849;29;20028;-79
2022/03/08 12:34:35;;;;;;;5.45;3.40;;;9.50;46.20;;;;;;4936773;29;20085;-80
2022/03/08 12:37:11;;;;;;;6.32;3.60;;;9.70;45.80;;;;;;4937909;29;20031;-79
2022/03/08 12:39:48;;;;;;;6.18;3.78;;;9.90;45.30;;;;;;4937446;29;20118;-78
2022/03/08 12:42:23;;;;;;;6.78;3.28;;;10.10;43.40;;;;;;4937994;29;20023;-81
2022/03/08 12:44:53;;;;;;;5.85;3.53;;;10.40;42.80;;;;;;4931773;29;20024;-76
2022/03/08 12:47:19;;;;;;;6.28;3.65;;;10.50;42.00;;;;;;4941003;29;20086;-81